sensor_id;sensor_type;location;lat;lon;timestamp;temperature;humidity
24144;DHT22;12307;50.828;6.080;2022-10-16T00:01:14;21.60;65.80
24144;DHT22;12307;50.828;6.080;2022-10-16T00:03:41;21.60;65.80
24144;DHT22;12307;50.828;6.080;2022-10-16T00:06:08;21.70;65.80
24144;DHT22;12307;50.828;6.080;2022-10-16T00:08:34;21.60;65.80
24144;DHT22;12307;50.828;6.080;2022-10-16T00:11:01;21.60;65.90
24144;DHT22;12307;50.828;6.080;2022-10-16T00:13:30;21.60;65.80
24144;DHT22;12307;50.828;6.080;2022-10-16T00:15:56;21.60;65.80
24144;DHT22;12307;50.828;6.080;2022-10-16T00:18:22;21.60;65.80
24144;DHT22;12307;50.828;6.080;2022-10-16T00:20:48;21.60;65.80
24144;DHT22;12307;50.828;6.080;2022-10-16T00:23:14;21.70;65.80
24144;DHT22;12307;50.828;6.080;2022-10-16T00:25:39;21.60;65.80
24144;DHT22;12307;50.828;6.080;2022-10-16T00:28:05;21.60;65.80
24144;DHT22;12307;50.828;6.080;2022-10-16T00:30:32;21.60;65.80
24144;DHT22;12307;50.828;6.080;2022-10-16T00:32:58;21.60;65.80
24144;DHT22;12307;50.828;6.080;2022-10-16T00:35:23;21.60;65.80
24144;DHT22;12307;50.828;6.080;2022-10-16T00:37:49;21.60;65.80
24144;DHT22;12307;50.828;6.080;2022-10-16T00:40:15;21.60;65.80
24144;DHT22;12307;50.828;6.080;2022-10-16T00:42:40;21.60;65.80
24144;DHT22;12307;50.828;6.080;2022-10-16T00:45:09;21.60;65.80
24144;DHT22;12307;50.828;6.080;2022-10-16T00:47:39;21.60;65.80
24144;DHT22;12307;50.828;6.080;2022-10-16T00:50:09;21.60;65.80
24144;DHT22;12307;50.828;6.080;2022-10-16T00:52:36;21.70;65.90
24144;DHT22;12307;50.828;6.080;2022-10-16T00:55:06;21.60;65.80
24144;DHT22;12307;50.828;6.080;2022-10-16T00:57:32;21.60;65.80
24144;DHT22;12307;50.828;6.080;2022-10-16T00:59:58;21.60;65.80
24144;DHT22;12307;50.828;6.080;2022-10-16T01:02:24;21.60;65.80
24144;DHT22;12307;50.828;6.080;2022-10-16T01:04:52;21.60;65.70
24144;DHT22;12307;50.828;6.080;2022-10-16T01:07:27;21.60;65.70
24144;DHT22;12307;50.828;6.080;2022-10-16T01:10:07;21.60;65.80
24144;DHT22;12307;50.828;6.080;2022-10-16T01:12:38;21.60;65.80
24144;DHT22;12307;50.828;6.080;2022-10-16T01:15:10;21.60;65.80
24144;DHT22;12307;50.828;6.080;2022-10-16T01:17:41;21.60;65.70
24144;DHT22;12307;50.828;6.080;2022-10-16T01:20:14;21.60;65.70
24144;DHT22;12307;50.828;6.080;2022-10-16T01:22:55;21.60;65.70
24144;DHT22;12307;50.828;6.080;2022-10-16T01:25:31;21.60;65.70
24144;DHT22;12307;50.828;6.080;2022-10-16T01:28:04;21.60;65.70
24144;DHT22;12307;50.828;6.080;2022-10-16T01:30:32;21.60;65.70
24144;DHT22;12307;50.828;6.080;2022-10-16T01:33:02;21.60;65.70
24144;DHT22;12307;50.828;6.080;2022-10-16T01:35:33;21.60;65.70
24144;DHT22;12307;50.828;6.080;2022-10-16T01:38:03;21.60;65.70
24144;DHT22;12307;50.828;6.080;2022-10-16T01:40:33;21.60;65.70
24144;DHT22;12307;50.828;6.080;2022-10-16T01:43:04;21.60;65.70
24144;DHT22;12307;50.828;6.080;2022-10-16T01:45:31;21.60;66.60
24144;DHT22;12307;50.828;6.080;2022-10-16T01:48:00;21.60;65.80
24144;DHT22;12307;50.828;6.080;2022-10-16T01:50:26;21.60;65.70
24144;DHT22;12307;50.828;6.080;2022-10-16T01:52:54;21.60;65.70
24144;DHT22;12307;50.828;6.080;2022-10-16T01:55:28;21.60;65.70
24144;DHT22;12307;50.828;6.080;2022-10-16T01:57:56;21.60;65.70
24144;DHT22;12307;50.828;6.080;2022-10-16T02:00:25;21.60;65.70
24144;DHT22;12307;50.828;6.080;2022-10-16T02:02:53;21.60;65.70
24144;DHT22;12307;50.828;6.080;2022-10-16T02:05:23;21.60;65.70
24144;DHT22;12307;50.828;6.080;2022-10-16T02:07:50;21.60;65.70
24144;DHT22;12307;50.828;6.080;2022-10-16T02:10:17;21.60;65.70
24144;DHT22;12307;50.828;6.080;2022-10-16T02:12:46;21.60;65.70
24144;DHT22;12307;50.828;6.080;2022-10-16T02:15:13;21.60;65.70
24144;DHT22;12307;50.828;6.080;2022-10-16T02:17:40;21.60;65.70
24144;DHT22;12307;50.828;6.080;2022-10-16T02:20:06;21.60;65.70
24144;DHT22;12307;50.828;6.080;2022-10-16T02:22:35;21.60;65.70
24144;DHT22;12307;50.828;6.080;2022-10-16T02:25:06;21.60;65.70
24144;DHT22;12307;50.828;6.080;2022-10-16T02:27:35;21.60;65.70
24144;DHT22;12307;50.828;6.080;2022-10-16T02:30:07;21.60;65.70
24144;DHT22;12307;50.828;6.080;2022-10-16T02:32:34;21.50;65.60
24144;DHT22;12307;50.828;6.080;2022-10-16T02:35:03;21.60;65.70
24144;DHT22;12307;50.828;6.080;2022-10-16T02:37:29;21.60;65.70
24144;DHT22;12307;50.828;6.080;2022-10-16T02:39:57;21.50;65.50
24144;DHT22;12307;50.828;6.080;2022-10-16T02:42:28;21.60;65.60
24144;DHT22;12307;50.828;6.080;2022-10-16T02:44:54;21.60;65.70
24144;DHT22;12307;50.828;6.080;2022-10-16T02:47:19;21.60;65.50
24144;DHT22;12307;50.828;6.080;2022-10-16T02:49:45;21.60;65.60
24144;DHT22;12307;50.828;6.080;2022-10-16T02:52:12;21.60;65.50
24144;DHT22;12307;50.828;6.080;2022-10-16T02:54:38;21.50;65.50
24144;DHT22;12307;50.828;6.080;2022-10-16T02:57:03;21.50;65.50
24144;DHT22;12307;50.828;6.080;2022-10-16T02:59:29;21.50;65.50
24144;DHT22;12307;50.828;6.080;2022-10-16T03:01:55;21.50;65.50
24144;DHT22;12307;50.828;6.080;2022-10-16T03:04:20;21.50;65.60
24144;DHT22;12307;50.828;6.080;2022-10-16T03:06:46;21.50;65.50
24144;DHT22;12307;50.828;6.080;2022-10-16T03:09:13;21.50;65.60
24144;DHT22;12307;50.828;6.080;2022-10-16T03:11:39;21.50;65.60
24144;DHT22;12307;50.828;6.080;2022-10-16T03:14:04;21.50;65.60
24144;DHT22;12307;50.828;6.080;2022-10-16T03:16:30;21.50;65.60
24144;DHT22;12307;50.828;6.080;2022-10-16T03:18:56;21.50;65.50
24144;DHT22;12307;50.828;6.080;2022-10-16T03:21:22;21.50;65.50
24144;DHT22;12307;50.828;6.080;2022-10-16T03:23:47;21.60;65.60
24144;DHT22;12307;50.828;6.080;2022-10-16T03:26:14;21.50;65.50
24144;DHT22;12307;50.828;6.080;2022-10-16T03:28:40;21.50;65.60
24144;DHT22;12307;50.828;6.080;2022-10-16T03:31:06;21.50;65.60
24144;DHT22;12307;50.828;6.080;2022-10-16T03:33:31;21.50;65.60
24144;DHT22;12307;50.828;6.080;2022-10-16T03:35:57;21.50;65.50
24144;DHT22;12307;50.828;6.080;2022-10-16T03:38:23;21.50;65.60
24144;DHT22;12307;50.828;6.080;2022-10-16T03:40:49;21.50;65.50
24144;DHT22;12307;50.828;6.080;2022-10-16T03:43:16;21.60;65.60
24144;DHT22;12307;50.828;6.080;2022-10-16T03:45:41;21.60;65.60
24144;DHT22;12307;50.828;6.080;2022-10-16T03:48:07;21.60;65.60
24144;DHT22;12307;50.828;6.080;2022-10-16T03:50:32;21.50;65.50
24144;DHT22;12307;50.828;6.080;2022-10-16T03:52:58;21.50;65.50
24144;DHT22;12307;50.828;6.080;2022-10-16T03:55:24;21.50;65.60
24144;DHT22;12307;50.828;6.080;2022-10-16T03:57:49;21.50;65.50
24144;DHT22;12307;50.828;6.080;2022-10-16T04:00:16;21.50;65.50
24144;DHT22;12307;50.828;6.080;2022-10-16T04:02:42;21.50;65.50
24144;DHT22;12307;50.828;6.080;2022-10-16T04:05:08;21.50;65.50
24144;DHT22;12307;50.828;6.080;2022-10-16T04:07:34;21.50;65.60
24144;DHT22;12307;50.828;6.080;2022-10-16T04:10:00;21.50;65.60
24144;DHT22;12307;50.828;6.080;2022-10-16T04:12:26;21.50;65.60
24144;DHT22;12307;50.828;6.080;2022-10-16T04:14:52;21.50;65.50
24144;DHT22;12307;50.828;6.080;2022-10-16T04:17:19;21.60;65.70
24144;DHT22;12307;50.828;6.080;2022-10-16T04:19:45;21.60;65.70
24144;DHT22;12307;50.828;6.080;2022-10-16T04:22:10;21.50;65.60
24144;DHT22;12307;50.828;6.080;2022-10-16T04:24:36;21.50;65.50
24144;DHT22;12307;50.828;6.080;2022-10-16T04:27:01;21.50;65.50
24144;DHT22;12307;50.828;6.080;2022-10-16T04:29:27;21.50;65.50
24144;DHT22;12307;50.828;6.080;2022-10-16T04:31:53;21.50;65.50
24144;DHT22;12307;50.828;6.080;2022-10-16T04:34:20;21.50;65.50
24144;DHT22;12307;50.828;6.080;2022-10-16T04:36:47;21.50;65.50
24144;DHT22;12307;50.828;6.080;2022-10-16T04:39:12;21.50;65.50
24144;DHT22;12307;50.828;6.080;2022-10-16T04:41:38;21.50;65.50
24144;DHT22;12307;50.828;6.080;2022-10-16T04:44:04;21.50;65.50
24144;DHT22;12307;50.828;6.080;2022-10-16T04:46:29;21.50;65.50
24144;DHT22;12307;50.828;6.080;2022-10-16T04:48:55;21.50;65.50
24144;DHT22;12307;50.828;6.080;2022-10-16T04:51:23;21.50;65.60
24144;DHT22;12307;50.828;6.080;2022-10-16T04:53:48;21.50;65.60
24144;DHT22;12307;50.828;6.080;2022-10-16T04:56:14;21.50;65.60
24144;DHT22;12307;50.828;6.080;2022-10-16T04:58:40;21.50;65.60
24144;DHT22;12307;50.828;6.080;2022-10-16T05:01:06;21.50;65.70
24144;DHT22;12307;50.828;6.080;2022-10-16T05:03:32;21.50;65.60
24144;DHT22;12307;50.828;6.080;2022-10-16T05:05:58;21.50;65.60
24144;DHT22;12307;50.828;6.080;2022-10-16T05:08:25;21.50;65.60
24144;DHT22;12307;50.828;6.080;2022-10-16T05:10:50;21.50;65.60
24144;DHT22;12307;50.828;6.080;2022-10-16T05:13:16;21.50;65.50
24144;DHT22;12307;50.828;6.080;2022-10-16T05:15:42;21.50;65.50
24144;DHT22;12307;50.828;6.080;2022-10-16T05:18:08;21.50;65.60
24144;DHT22;12307;50.828;6.080;2022-10-16T05:20:34;21.50;65.60
24144;DHT22;12307;50.828;6.080;2022-10-16T05:23:00;21.50;65.60
24144;DHT22;12307;50.828;6.080;2022-10-16T05:25:27;21.50;65.50
24144;DHT22;12307;50.828;6.080;2022-10-16T05:27:52;21.50;65.60
24144;DHT22;12307;50.828;6.080;2022-10-16T05:30:18;21.50;65.70
24144;DHT22;12307;50.828;6.080;2022-10-16T05:32:46;21.50;65.60
24144;DHT22;12307;50.828;6.080;2022-10-16T05:35:13;21.50;65.60
24144;DHT22;12307;50.828;6.080;2022-10-16T05:37:38;21.50;66.40
24144;DHT22;12307;50.828;6.080;2022-10-16T05:40:05;21.50;65.50
24144;DHT22;12307;50.828;6.080;2022-10-16T05:42:32;21.50;65.60
24144;DHT22;12307;50.828;6.080;2022-10-16T05:44:58;21.50;65.50
24144;DHT22;12307;50.828;6.080;2022-10-16T05:47:23;21.50;65.60
24144;DHT22;12307;50.828;6.080;2022-10-16T05:49:49;21.50;65.50
24144;DHT22;12307;50.828;6.080;2022-10-16T05:52:15;21.50;65.50
24144;DHT22;12307;50.828;6.080;2022-10-16T05:54:40;21.50;65.50
24144;DHT22;12307;50.828;6.080;2022-10-16T05:57:06;21.50;65.50
24144;DHT22;12307;50.828;6.080;2022-10-16T05:59:33;21.50;65.60
24144;DHT22;12307;50.828;6.080;2022-10-16T06:01:59;21.50;65.50
24144;DHT22;12307;50.828;6.080;2022-10-16T06:04:24;21.50;65.50
24144;DHT22;12307;50.828;6.080;2022-10-16T06:06:50;21.50;65.50
24144;DHT22;12307;50.828;6.080;2022-10-16T06:09:16;21.50;65.50
24144;DHT22;12307;50.828;6.080;2022-10-16T06:11:41;21.50;65.50
24144;DHT22;12307;50.828;6.080;2022-10-16T06:14:08;21.50;65.50
24144;DHT22;12307;50.828;6.080;2022-10-16T06:16:38;21.50;65.50
24144;DHT22;12307;50.828;6.080;2022-10-16T06:19:04;21.50;65.50
24144;DHT22;12307;50.828;6.080;2022-10-16T06:21:33;21.50;65.50
24144;DHT22;12307;50.828;6.080;2022-10-16T06:23:59;21.50;65.50
24144;DHT22;12307;50.828;6.080;2022-10-16T06:26:26;21.50;65.50
24144;DHT22;12307;50.828;6.080;2022-10-16T06:28:54;21.50;65.50
24144;DHT22;12307;50.828;6.080;2022-10-16T06:31:20;21.50;65.50
24144;DHT22;12307;50.828;6.080;2022-10-16T06:33:50;21.50;65.50
24144;DHT22;12307;50.828;6.080;2022-10-16T06:36:17;21.50;65.40
24144;DHT22;12307;50.828;6.080;2022-10-16T06:38:43;21.50;65.40
24144;DHT22;12307;50.828;6.080;2022-10-16T06:41:11;21.50;65.40
24144;DHT22;12307;50.828;6.080;2022-10-16T06:43:37;21.50;65.40
24144;DHT22;12307;50.828;6.080;2022-10-16T06:46:04;21.50;65.40
24144;DHT22;12307;50.828;6.080;2022-10-16T06:48:31;21.50;65.40
24144;DHT22;12307;50.828;6.080;2022-10-16T06:50:59;21.50;65.40
24144;DHT22;12307;50.828;6.080;2022-10-16T06:53:27;21.50;65.30
24144;DHT22;12307;50.828;6.080;2022-10-16T06:55:53;21.50;65.20
24144;DHT22;12307;50.828;6.080;2022-10-16T06:58:18;21.50;65.20
24144;DHT22;12307;50.828;6.080;2022-10-16T07:00:44;21.50;65.20
24144;DHT22;12307;50.828;6.080;2022-10-16T07:03:10;21.50;65.20
24144;DHT22;12307;50.828;6.080;2022-10-16T07:05:37;21.50;65.10
24144;DHT22;12307;50.828;6.080;2022-10-16T07:08:04;21.60;65.20
24144;DHT22;12307;50.828;6.080;2022-10-16T07:10:30;21.60;65.20
24144;DHT22;12307;50.828;6.080;2022-10-16T07:12:56;21.60;65.20
24144;DHT22;12307;50.828;6.080;2022-10-16T07:15:22;21.60;65.10
24144;DHT22;12307;50.828;6.080;2022-10-16T07:17:47;21.60;65.10
24144;DHT22;12307;50.828;6.080;2022-10-16T07:20:13;21.60;65.20
24144;DHT22;12307;50.828;6.080;2022-10-16T07:22:39;21.60;65.10
24144;DHT22;12307;50.828;6.080;2022-10-16T07:25:07;21.60;65.10
24144;DHT22;12307;50.828;6.080;2022-10-16T07:27:33;21.60;65.20
24144;DHT22;12307;50.828;6.080;2022-10-16T07:29:59;21.60;65.10
24144;DHT22;12307;50.828;6.080;2022-10-16T07:32:25;21.60;65.90
24144;DHT22;12307;50.828;6.080;2022-10-16T07:34:51;21.60;65.00
24144;DHT22;12307;50.828;6.080;2022-10-16T07:37:16;21.60;64.90
24144;DHT22;12307;50.828;6.080;2022-10-16T07:39:42;21.70;64.80
24144;DHT22;12307;50.828;6.080;2022-10-16T07:42:09;21.70;64.70
24144;DHT22;12307;50.828;6.080;2022-10-16T07:44:35;21.80;64.60
24144;DHT22;12307;50.828;6.080;2022-10-16T07:47:00;21.90;64.40
24144;DHT22;12307;50.828;6.080;2022-10-16T07:49:26;22.00;64.20
24144;DHT22;12307;50.828;6.080;2022-10-16T07:51:52;22.00;64.10
24144;DHT22;12307;50.828;6.080;2022-10-16T07:54:17;22.00;64.00
24144;DHT22;12307;50.828;6.080;2022-10-16T07:56:43;22.00;63.90
24144;DHT22;12307;50.828;6.080;2022-10-16T07:59:10;22.10;63.90
24144;DHT22;12307;50.828;6.080;2022-10-16T08:01:36;22.10;63.70
24144;DHT22;12307;50.828;6.080;2022-10-16T08:04:01;22.20;63.50
24144;DHT22;12307;50.828;6.080;2022-10-16T08:06:27;22.30;63.10
24144;DHT22;12307;50.828;6.080;2022-10-16T08:08:53;22.40;62.90
24144;DHT22;12307;50.828;6.080;2022-10-16T08:11:18;22.50;62.80
24144;DHT22;12307;50.828;6.080;2022-10-16T08:13:44;22.50;62.40
24144;DHT22;12307;50.828;6.080;2022-10-16T08:16:11;22.60;62.30
24144;DHT22;12307;50.828;6.080;2022-10-16T08:18:38;22.70;62.10
24144;DHT22;12307;50.828;6.080;2022-10-16T08:21:05;22.80;61.90
24144;DHT22;12307;50.828;6.080;2022-10-16T08:23:32;22.80;61.60
24144;DHT22;12307;50.828;6.080;2022-10-16T08:26:03;22.90;61.50
24144;DHT22;12307;50.828;6.080;2022-10-16T08:28:29;23.00;61.30
24144;DHT22;12307;50.828;6.080;2022-10-16T08:30:55;23.00;61.20
24144;DHT22;12307;50.828;6.080;2022-10-16T08:33:23;23.10;61.10
24144;DHT22;12307;50.828;6.080;2022-10-16T08:35:52;23.10;61.00
24144;DHT22;12307;50.828;6.080;2022-10-16T08:38:19;23.10;61.00
24144;DHT22;12307;50.828;6.080;2022-10-16T08:40:45;23.10;61.00
24144;DHT22;12307;50.828;6.080;2022-10-16T08:43:26;23.10;60.90
24144;DHT22;12307;50.828;6.080;2022-10-16T08:46:21;23.20;60.80
24144;DHT22;12307;50.828;6.080;2022-10-16T08:48:53;23.30;60.50
24144;DHT22;12307;50.828;6.080;2022-10-16T08:51:22;23.40;60.40
24144;DHT22;12307;50.828;6.080;2022-10-16T08:53:52;23.50;60.20
24144;DHT22;12307;50.828;6.080;2022-10-16T08:56:19;23.60;60.00
24144;DHT22;12307;50.828;6.080;2022-10-16T08:58:46;23.70;59.80
24144;DHT22;12307;50.828;6.080;2022-10-16T09:01:15;23.70;59.50
24144;DHT22;12307;50.828;6.080;2022-10-16T09:04:01;23.80;59.60
24144;DHT22;12307;50.828;6.080;2022-10-16T09:06:40;23.80;59.40
24144;DHT22;12307;50.828;6.080;2022-10-16T09:09:31;23.90;59.20
24144;DHT22;12307;50.828;6.080;2022-10-16T09:12:08;24.00;59.00
24144;DHT22;12307;50.828;6.080;2022-10-16T09:14:47;24.10;59.00
24144;DHT22;12307;50.828;6.080;2022-10-16T09:17:27;24.10;58.90
24144;DHT22;12307;50.828;6.080;2022-10-16T09:20:07;24.20;58.80
24144;DHT22;12307;50.828;6.080;2022-10-16T09:22:37;24.20;58.60
24144;DHT22;12307;50.828;6.080;2022-10-16T09:25:11;24.30;58.50
24144;DHT22;12307;50.828;6.080;2022-10-16T09:27:37;24.30;58.40
24144;DHT22;12307;50.828;6.080;2022-10-16T09:30:11;24.40;58.30
24144;DHT22;12307;50.828;6.080;2022-10-16T09:32:38;24.50;58.20
24144;DHT22;12307;50.828;6.080;2022-10-16T09:35:11;24.50;58.00
24144;DHT22;12307;50.828;6.080;2022-10-16T09:37:38;24.50;57.90
24144;DHT22;12307;50.828;6.080;2022-10-16T09:40:06;24.60;58.00
24144;DHT22;12307;50.828;6.080;2022-10-16T09:42:35;24.60;57.80
24144;DHT22;12307;50.828;6.080;2022-10-16T09:45:02;24.70;57.80
24144;DHT22;12307;50.828;6.080;2022-10-16T09:47:30;24.70;57.80
24144;DHT22;12307;50.828;6.080;2022-10-16T09:49:57;24.70;57.60
24144;DHT22;12307;50.828;6.080;2022-10-16T09:52:26;24.80;57.60
24144;DHT22;12307;50.828;6.080;2022-10-16T09:54:54;24.90;57.40
24144;DHT22;12307;50.828;6.080;2022-10-16T09:57:21;24.90;57.30
24144;DHT22;12307;50.828;6.080;2022-10-16T09:59:47;24.90;57.30
24144;DHT22;12307;50.828;6.080;2022-10-16T10:02:14;25.00;57.20
24144;DHT22;12307;50.828;6.080;2022-10-16T10:04:43;25.00;57.10
24144;DHT22;12307;50.828;6.080;2022-10-16T10:07:17;25.10;57.00
24144;DHT22;12307;50.828;6.080;2022-10-16T10:09:45;25.10;56.90
24144;DHT22;12307;50.828;6.080;2022-10-16T10:12:18;25.10;56.90
24144;DHT22;12307;50.828;6.080;2022-10-16T10:14:46;25.10;56.90
24144;DHT22;12307;50.828;6.080;2022-10-16T10:17:15;25.10;56.80
24144;DHT22;12307;50.828;6.080;2022-10-16T10:19:46;25.10;56.60
24144;DHT22;12307;50.828;6.080;2022-10-16T10:22:28;25.10;56.70
24144;DHT22;12307;50.828;6.080;2022-10-16T10:24:57;25.10;56.90
24144;DHT22;12307;50.828;6.080;2022-10-16T10:27:31;25.10;56.90
24144;DHT22;12307;50.828;6.080;2022-10-16T10:30:02;24.90;57.20
24144;DHT22;12307;50.828;6.080;2022-10-16T10:32:34;24.80;57.40
24144;DHT22;12307;50.828;6.080;2022-10-16T10:35:12;24.60;57.60
24144;DHT22;12307;50.828;6.080;2022-10-16T10:38:00;24.50;58.00
24144;DHT22;12307;50.828;6.080;2022-10-16T10:40:43;24.50;58.20
24144;DHT22;12307;50.828;6.080;2022-10-16T10:43:19;24.40;58.40
24144;DHT22;12307;50.828;6.080;2022-10-16T10:45:52;24.30;58.50
24144;DHT22;12307;50.828;6.080;2022-10-16T10:48:45;24.50;58.50
24144;DHT22;12307;50.828;6.080;2022-10-16T10:51:19;24.60;58.30
24144;DHT22;12307;50.828;6.080;2022-10-16T10:53:54;24.70;58.00
24144;DHT22;12307;50.828;6.080;2022-10-16T10:56:40;24.80;57.70
24144;DHT22;12307;50.828;6.080;2022-10-16T10:59:24;24.70;57.70
24144;DHT22;12307;50.828;6.080;2022-10-16T11:01:55;24.70;57.90
24144;DHT22;12307;50.828;6.080;2022-10-16T11:04:34;24.70;58.00
24144;DHT22;12307;50.828;6.080;2022-10-16T11:07:07;24.80;57.90
24144;DHT22;12307;50.828;6.080;2022-10-16T11:09:37;24.90;57.50
24144;DHT22;12307;50.828;6.080;2022-10-16T11:12:09;25.10;57.20
24144;DHT22;12307;50.828;6.080;2022-10-16T11:14:41;25.30;56.80
24144;DHT22;12307;50.828;6.080;2022-10-16T11:17:11;25.30;56.60
24144;DHT22;12307;50.828;6.080;2022-10-16T11:19:43;25.40;57.20
24144;DHT22;12307;50.828;6.080;2022-10-16T11:22:16;25.30;56.50
24144;DHT22;12307;50.828;6.080;2022-10-16T11:24:47;25.40;56.60
24144;DHT22;12307;50.828;6.080;2022-10-16T11:27:18;25.50;56.40
24144;DHT22;12307;50.828;6.080;2022-10-16T11:29:50;25.50;56.30
24144;DHT22;12307;50.828;6.080;2022-10-16T11:32:22;25.50;56.30
24144;DHT22;12307;50.828;6.080;2022-10-16T11:34:53;25.50;56.30
24144;DHT22;12307;50.828;6.080;2022-10-16T11:37:26;25.50;56.30
24144;DHT22;12307;50.828;6.080;2022-10-16T11:39:54;25.50;56.30
24144;DHT22;12307;50.828;6.080;2022-10-16T11:42:30;25.40;56.30
24144;DHT22;12307;50.828;6.080;2022-10-16T11:45:02;25.30;56.60
24144;DHT22;12307;50.828;6.080;2022-10-16T11:47:34;25.20;56.80
24144;DHT22;12307;50.828;6.080;2022-10-16T11:50:03;25.10;57.00
24144;DHT22;12307;50.828;6.080;2022-10-16T11:52:36;25.10;57.10
24144;DHT22;12307;50.828;6.080;2022-10-16T11:55:13;25.00;57.30
24144;DHT22;12307;50.828;6.080;2022-10-16T11:57:45;25.00;57.30
24144;DHT22;12307;50.828;6.080;2022-10-16T12:00:20;25.00;57.30
24144;DHT22;12307;50.828;6.080;2022-10-16T12:02:54;25.00;57.40
24144;DHT22;12307;50.828;6.080;2022-10-16T12:05:25;25.00;57.40
24144;DHT22;12307;50.828;6.080;2022-10-16T12:08:04;25.00;57.30
24144;DHT22;12307;50.828;6.080;2022-10-16T12:10:32;25.00;57.40
24144;DHT22;12307;50.828;6.080;2022-10-16T12:13:03;24.90;57.40
24144;DHT22;12307;50.828;6.080;2022-10-16T12:15:30;24.90;57.60
24144;DHT22;12307;50.828;6.080;2022-10-16T12:17:57;24.80;57.70
24144;DHT22;12307;50.828;6.080;2022-10-16T12:20:28;24.70;57.90
24144;DHT22;12307;50.828;6.080;2022-10-16T12:22:59;24.70;58.10
24144;DHT22;12307;50.828;6.080;2022-10-16T12:25:27;24.60;58.80
24144;DHT22;12307;50.828;6.080;2022-10-16T12:27:55;24.50;58.40
24144;DHT22;12307;50.828;6.080;2022-10-16T12:30:25;24.50;58.40
24144;DHT22;12307;50.828;6.080;2022-10-16T12:32:56;24.50;58.60
24144;DHT22;12307;50.828;6.080;2022-10-16T12:35:24;24.50;58.60
24144;DHT22;12307;50.828;6.080;2022-10-16T12:37:51;24.50;58.70
24144;DHT22;12307;50.828;6.080;2022-10-16T12:40:26;24.50;58.70
24144;DHT22;12307;50.828;6.080;2022-10-16T12:42:52;24.50;58.80
24144;DHT22;12307;50.828;6.080;2022-10-16T12:45:28;24.40;58.80
24144;DHT22;12307;50.828;6.080;2022-10-16T12:47:55;24.40;58.80
24144;DHT22;12307;50.828;6.080;2022-10-16T12:50:31;24.40;58.90
24144;DHT22;12307;50.828;6.080;2022-10-16T12:52:57;24.40;59.00
24144;DHT22;12307;50.828;6.080;2022-10-16T12:55:23;24.30;58.90
24144;DHT22;12307;50.828;6.080;2022-10-16T13:00:56;24.30;59.10
24144;DHT22;12307;50.828;6.080;2022-10-16T13:03:34;24.30;59.30
24144;DHT22;12307;50.828;6.080;2022-10-16T13:06:14;24.20;59.20
24144;DHT22;12307;50.828;6.080;2022-10-16T13:08:53;24.10;59.40
24144;DHT22;12307;50.828;6.080;2022-10-16T13:11:35;24.20;59.50
24144;DHT22;12307;50.828;6.080;2022-10-16T13:14:22;24.20;59.60
24144;DHT22;12307;50.828;6.080;2022-10-16T13:16:59;24.10;59.70
24144;DHT22;12307;50.828;6.080;2022-10-16T13:19:31;24.10;59.70
24144;DHT22;12307;50.828;6.080;2022-10-16T13:22:04;24.00;59.70
24144;DHT22;12307;50.828;6.080;2022-10-16T13:24:42;24.00;59.80
24144;DHT22;12307;50.828;6.080;2022-10-16T13:27:18;24.00;59.90
24144;DHT22;12307;50.828;6.080;2022-10-16T13:29:52;24.00;59.90
24144;DHT22;12307;50.828;6.080;2022-10-16T13:32:20;23.90;60.00
24144;DHT22;12307;50.828;6.080;2022-10-16T13:34:48;23.90;60.20
24144;DHT22;12307;50.828;6.080;2022-10-16T13:37:18;23.90;60.20
24144;DHT22;12307;50.828;6.080;2022-10-16T13:39:45;23.90;60.20
24144;DHT22;12307;50.828;6.080;2022-10-16T13:42:14;23.90;60.20
24144;DHT22;12307;50.828;6.080;2022-10-16T13:44:43;23.90;60.30
24144;DHT22;12307;50.828;6.080;2022-10-16T13:47:16;23.80;60.30
24144;DHT22;12307;50.828;6.080;2022-10-16T13:49:43;23.80;60.30
24144;DHT22;12307;50.828;6.080;2022-10-16T13:52:18;23.80;60.30
24144;DHT22;12307;50.828;6.080;2022-10-16T13:54:43;23.80;60.50
24144;DHT22;12307;50.828;6.080;2022-10-16T13:57:13;23.80;60.60
24144;DHT22;12307;50.828;6.080;2022-10-16T13:59:39;23.70;60.60
24144;DHT22;12307;50.828;6.080;2022-10-16T14:02:14;23.70;60.70
24144;DHT22;12307;50.828;6.080;2022-10-16T14:04:44;23.60;60.80
24144;DHT22;12307;50.828;6.080;2022-10-16T14:07:23;23.60;60.80
24144;DHT22;12307;50.828;6.080;2022-10-16T14:09:51;23.60;61.00
24144;DHT22;12307;50.828;6.080;2022-10-16T14:12:17;23.60;61.00
24144;DHT22;12307;50.828;6.080;2022-10-16T14:14:44;23.60;61.10
24144;DHT22;12307;50.828;6.080;2022-10-16T14:17:14;23.50;61.10
24144;DHT22;12307;50.828;6.080;2022-10-16T14:19:40;23.60;61.30
24144;DHT22;12307;50.828;6.080;2022-10-16T14:22:27;23.50;61.30
24144;DHT22;12307;50.828;6.080;2022-10-16T14:24:53;23.50;61.30
24144;DHT22;12307;50.828;6.080;2022-10-16T14:27:26;23.50;61.40
24144;DHT22;12307;50.828;6.080;2022-10-16T14:30:14;23.50;61.40
24144;DHT22;12307;50.828;6.080;2022-10-16T14:32:41;23.50;61.40
24144;DHT22;12307;50.828;6.080;2022-10-16T14:35:22;23.50;61.50
24144;DHT22;12307;50.828;6.080;2022-10-16T14:37:53;23.40;61.40
24144;DHT22;12307;50.828;6.080;2022-10-16T14:40:21;23.50;61.50
24144;DHT22;12307;50.828;6.080;2022-10-16T14:42:48;23.40;61.50
24144;DHT22;12307;50.828;6.080;2022-10-16T14:45:19;23.40;61.50
24144;DHT22;12307;50.828;6.080;2022-10-16T14:47:49;23.40;61.70
24144;DHT22;12307;50.828;6.080;2022-10-16T14:50:15;23.40;61.70
24144;DHT22;12307;50.828;6.080;2022-10-16T14:52:41;23.40;61.70
24144;DHT22;12307;50.828;6.080;2022-10-16T14:55:10;23.40;61.70
24144;DHT22;12307;50.828;6.080;2022-10-16T14:57:37;23.40;61.80
24144;DHT22;12307;50.828;6.080;2022-10-16T15:00:08;23.40;61.80
24144;DHT22;12307;50.828;6.080;2022-10-16T15:02:35;23.30;61.80
24144;DHT22;12307;50.828;6.080;2022-10-16T15:05:12;23.30;61.80
24144;DHT22;12307;50.828;6.080;2022-10-16T15:07:38;23.30;61.90
24144;DHT22;12307;50.828;6.080;2022-10-16T15:10:04;23.30;62.00
24144;DHT22;12307;50.828;6.080;2022-10-16T15:12:32;23.30;62.00
24144;DHT22;12307;50.828;6.080;2022-10-16T15:14:57;23.20;62.00
24144;DHT22;12307;50.828;6.080;2022-10-16T15:17:23;23.20;62.10
24144;DHT22;12307;50.828;6.080;2022-10-16T15:19:48;23.20;62.10
24144;DHT22;12307;50.828;6.080;2022-10-16T15:22:14;23.20;62.10
24144;DHT22;12307;50.828;6.080;2022-10-16T15:24:40;23.20;62.20
24144;DHT22;12307;50.828;6.080;2022-10-16T15:27:06;23.20;62.20
24144;DHT22;12307;50.828;6.080;2022-10-16T15:29:32;23.20;62.30
24144;DHT22;12307;50.828;6.080;2022-10-16T15:31:58;23.20;62.30
24144;DHT22;12307;50.828;6.080;2022-10-16T15:34:24;23.20;62.30
24144;DHT22;12307;50.828;6.080;2022-10-16T15:36:49;23.20;62.40
24144;DHT22;12307;50.828;6.080;2022-10-16T15:39:17;23.10;62.30
24144;DHT22;12307;50.828;6.080;2022-10-16T15:41:44;23.10;62.40
24144;DHT22;12307;50.828;6.080;2022-10-16T15:44:10;23.10;62.50